sensor_id;sensor_type;location;lat;lon;timestamp;pressure;altitude;pressure_sealevel;temperature;humidity
49591;BME280;35496;-21.974;-46.800;2022-11-06T00:02:24;92794.41;;;24.19;58.68
49591;BME280;35496;-21.974;-46.800;2022-11-06T00:04:50;92737.81;;;24.61;57.11
49591;BME280;35496;-21.974;-46.800;2022-11-06T00:07:17;92809.25;;;24.63;57.85
49591;BME280;35496;-21.974;-46.800;2022-11-06T00:09:46;92744.63;;;23.84;58.68
49591;BME280;35496;-21.974;-46.800;2022-11-06T00:12:13;92795.50;;;24.23;58.90
49591;BME280;35496;-21.974;-46.800;2022-11-06T00:14:40;92797.03;;;24.09;59.01
49591;BME280;35496;-21.974;-46.800;2022-11-06T00:17:06;92820.28;;;23.97;59.92
49591;BME280;35496;-21.974;-46.800;2022-11-06T00:19:33;92745.06;;;23.70;59.30
49591;BME280;35496;-21.974;-46.800;2022-11-06T00:22:00;92829.69;;;24.14;60.32
49591;BME280;35496;-21.974;-46.800;2022-11-06T00:24:27;92845.97;;;24.33;59.65
49591;BME280;35496;-21.974;-46.800;2022-11-06T00:26:53;92845.38;;;24.21;60.43
49591;BME280;35496;-21.974;-46.800;2022-11-06T00:29:20;92833.75;;;23.85;61.35
49591;BME280;35496;-21.974;-46.800;2022-11-06T00:31:49;92832.91;;;23.79;61.67
49591;BME280;35496;-21.974;-46.800;2022-11-06T00:34:15;92785.16;;;23.47;61.63
49591;BME280;35496;-21.974;-46.800;2022-11-06T00:36:42;92782.41;;;24.01;60.66
49591;BME280;35496;-21.974;-46.800;2022-11-06T00:39:10;92748.75;;;23.64;60.87
49591;BME280;35496;-21.974;-46.800;2022-11-06T00:41:37;92835.00;;;24.14;60.71
49591;BME280;35496;-21.974;-46.800;2022-11-06T00:44:04;92819.56;;;23.69;61.56
49591;BME280;35496;-21.974;-46.800;2022-11-06T00:46:30;92831.38;;;23.88;60.45
49591;BME280;35496;-21.974;-46.800;2022-11-06T00:48:57;92857.97;;;23.99;61.43
49591;BME280;35496;-21.974;-46.800;2022-11-06T00:51:32;92858.97;;;24.30;60.62
49591;BME280;35496;-21.974;-46.800;2022-11-06T00:54:03;92786.28;;;23.51;60.52
49591;BME280;35496;-21.974;-46.800;2022-11-06T00:56:33;92869.13;;;25.06;58.99
49591;BME280;35496;-21.974;-46.800;2022-11-06T00:59:02;92849.25;;;24.51;59.85
49591;BME280;35496;-21.974;-46.800;2022-11-06T01:01:32;92852.56;;;23.83;60.71
49591;BME280;35496;-21.974;-46.800;2022-11-06T01:04:05;92867.94;;;24.24;60.03
49591;BME280;35496;-21.974;-46.800;2022-11-06T01:06:34;92818.50;;;24.55;59.44
49591;BME280;35496;-21.974;-46.800;2022-11-06T01:09:02;92880.88;;;25.21;58.41
49591;BME280;35496;-21.974;-46.800;2022-11-06T01:11:32;92870.34;;;24.78;58.93
49591;BME280;35496;-21.974;-46.800;2022-11-06T01:14:00;92799.19;;;24.17;59.37
49591;BME280;35496;-21.974;-46.800;2022-11-06T01:16:28;92845.63;;;24.14;60.68
49591;BME280;35496;-21.974;-46.800;2022-11-06T01:18:56;92794.38;;;23.71;60.10
49591;BME280;35496;-21.974;-46.800;2022-11-06T01:21:29;92853.66;;;24.30;60.78
49591;BME280;35496;-21.974;-46.800;2022-11-06T01:24:08;92784.00;;;23.65;60.48
49591;BME280;35496;-21.974;-46.800;2022-11-06T01:26:36;92815.63;;;23.77;60.79
49591;BME280;35496;-21.974;-46.800;2022-11-06T01:29:04;92815.50;;;23.29;61.62
49591;BME280;35496;-21.974;-46.800;2022-11-06T01:31:34;92847.53;;;23.00;63.41
49591;BME280;35496;-21.974;-46.800;2022-11-06T01:34:01;92830.22;;;23.42;63.04
49591;BME280;35496;-21.974;-46.800;2022-11-06T01:36:29;92800.53;;;23.12;63.11
49591;BME280;35496;-21.974;-46.800;2022-11-06T01:38:59;92760.50;;;22.54;63.96
49591;BME280;35496;-21.974;-46.800;2022-11-06T01:41:38;92843.59;;;22.75;65.54
49591;BME280;35496;-21.974;-46.800;2022-11-06T01:47:00;92855.47;;;21.95;69.60
49591;BME280;35496;-21.974;-46.800;2022-11-06T01:49:33;92839.41;;;21.63;71.34
49591;BME280;35496;-21.974;-46.800;2022-11-06T01:52:07;92848.19;;;21.51;71.83
49591;BME280;35496;-21.974;-46.800;2022-11-06T01:54:36;92796.66;;;21.03;73.71
49591;BME280;35496;-21.974;-46.800;2022-11-06T01:57:05;92829.78;;;21.56;73.31
49591;BME280;35496;-21.974;-46.800;2022-11-06T01:59:35;92797.16;;;21.34;73.85
49591;BME280;35496;-21.974;-46.800;2022-11-06T02:02:02;92663.44;;;20.60;74.39
49591;BME280;35496;-21.974;-46.800;2022-11-06T02:04:36;92811.59;;;20.97;76.36
49591;BME280;35496;-21.974;-46.800;2022-11-06T02:07:04;92753.22;;;21.11;75.18
49591;BME280;35496;-21.974;-46.800;2022-11-06T02:09:33;92749.06;;;21.32;74.63
49591;BME280;35496;-21.974;-46.800;2022-11-06T02:12:12;92816.69;;;22.01;74.45
49591;BME280;35496;-21.974;-46.800;2022-11-06T02:20:16;92826.94;;;22.80;72.48
49591;BME280;35496;-21.974;-46.800;2022-11-06T02:23:09;92787.94;;;22.26;73.32
49591;BME280;35496;-21.974;-46.800;2022-11-06T02:28:43;92761.13;;;22.40;72.85
49591;BME280;35496;-21.974;-46.800;2022-11-06T02:31:16;92747.31;;;21.93;73.32
49591;BME280;35496;-21.974;-46.800;2022-11-06T02:33:51;92814.22;;;22.33;74.46
49591;BME280;35496;-21.974;-46.800;2022-11-06T02:36:24;92717.53;;;21.08;76.79
49591;BME280;35496;-21.974;-46.800;2022-11-06T02:38:58;92820.03;;;21.96;76.13
49591;BME280;35496;-21.974;-46.800;2022-11-06T02:41:31;92746.06;;;22.01;74.29
49591;BME280;35496;-21.974;-46.800;2022-11-06T02:43:59;92770.06;;;22.16;74.18
49591;BME280;35496;-21.974;-46.800;2022-11-06T02:46:36;92712.00;;;22.27;73.04
49591;BME280;35496;-21.974;-46.800;2022-11-06T02:49:11;92771.25;;;22.48;73.13
49591;BME280;35496;-21.974;-46.800;2022-11-06T02:52:09;92812.69;;;22.86;72.20
49591;BME280;35496;-21.974;-46.800;2022-11-06T02:54:41;92748.59;;;22.57;71.63
49591;BME280;35496;-21.974;-46.800;2022-11-06T02:57:12;92828.41;;;23.47;71.54
49591;BME280;35496;-21.974;-46.800;2022-11-06T02:59:47;92832.09;;;23.46;70.81
49591;BME280;35496;-21.974;-46.800;2022-11-06T03:02:23;92833.47;;;22.72;72.63
49591;BME280;35496;-21.974;-46.800;2022-11-06T03:04:59;92805.97;;;23.01;71.70
49591;BME280;35496;-21.974;-46.800;2022-11-06T03:07:30;92827.50;;;23.36;71.13
49591;BME280;35496;-21.974;-46.800;2022-11-06T03:09:58;92765.88;;;22.65;71.19
49591;BME280;35496;-21.974;-46.800;2022-11-06T03:12:32;92811.63;;;23.09;71.09
49591;BME280;35496;-21.974;-46.800;2022-11-06T03:15:05;92788.00;;;22.81;71.50
49591;BME280;35496;-21.974;-46.800;2022-11-06T03:17:44;92810.28;;;22.85;71.80
49591;BME280;35496;-21.974;-46.800;2022-11-06T03:20:28;92809.56;;;22.89;72.00
49591;BME280;35496;-21.974;-46.800;2022-11-06T03:23:19;92819.09;;;22.90;72.42
49591;BME280;35496;-21.974;-46.800;2022-11-06T03:25:50;92785.91;;;23.05;71.20
49591;BME280;35496;-21.974;-46.800;2022-11-06T03:30:52;92773.97;;;22.80;71.91
49591;BME280;35496;-21.974;-46.800;2022-11-06T03:33:45;92778.66;;;22.73;72.21
49591;BME280;35496;-21.974;-46.800;2022-11-06T03:36:20;92812.94;;;22.85;74.00
49591;BME280;35496;-21.974;-46.800;2022-11-06T03:41:51;92816.28;;;24.42;70.36
49591;BME280;35496;-21.974;-46.800;2022-11-06T03:44:23;92818.72;;;23.31;71.84
49591;BME280;35496;-21.974;-46.800;2022-11-06T03:49:50;92767.38;;;22.55;72.52
49591;BME280;35496;-21.974;-46.800;2022-11-06T03:52:38;92772.88;;;23.30;69.82
49591;BME280;35496;-21.974;-46.800;2022-11-06T03:55:23;92802.75;;;23.53;70.13
49591;BME280;35496;-21.974;-46.800;2022-11-06T03:57:56;92801.38;;;22.91;71.42
49591;BME280;35496;-21.974;-46.800;2022-11-06T04:00:27;92777.16;;;22.55;72.58
49591;BME280;35496;-21.974;-46.800;2022-11-06T04:02:57;92749.22;;;22.42;72.14
49591;BME280;35496;-21.974;-46.800;2022-11-06T04:05:36;92790.19;;;22.89;72.34
49591;BME280;35496;-21.974;-46.800;2022-11-06T04:08:07;92761.31;;;21.55;76.66
49591;BME280;35496;-21.974;-46.800;2022-11-06T04:10:56;92748.59;;;21.35;78.46
49591;BME280;35496;-21.974;-46.800;2022-11-06T04:13:43;92756.53;;;21.52;78.64
49591;BME280;35496;-21.974;-46.800;2022-11-06T04:16:26;92738.16;;;21.28;79.12
49591;BME280;35496;-21.974;-46.800;2022-11-06T04:18:53;92726.56;;;21.29;79.78
49591;BME280;35496;-21.974;-46.800;2022-11-06T04:27:59;92755.78;;;21.39;80.73
49591;BME280;35496;-21.974;-46.800;2022-11-06T04:31:01;92735.34;;;21.69;80.59
49591;BME280;35496;-21.974;-46.800;2022-11-06T04:36:31;92747.41;;;21.82;79.53
49591;BME280;35496;-21.974;-46.800;2022-11-06T04:47:14;92721.13;;;20.85;84.16
49591;BME280;35496;-21.974;-46.800;2022-11-06T04:49:43;92706.72;;;21.27;82.13
49591;BME280;35496;-21.974;-46.800;2022-11-06T04:52:17;92673.06;;;21.00;82.64
49591;BME280;35496;-21.974;-46.800;2022-11-06T04:54:45;92721.19;;;21.24;82.42
49591;BME280;35496;-21.974;-46.800;2022-11-06T04:57:12;92726.03;;;21.44;82.78
49591;BME280;35496;-21.974;-46.800;2022-11-06T04:59:39;92634.72;;;20.97;81.66
49591;BME280;35496;-21.974;-46.800;2022-11-06T05:02:06;92649.47;;;21.49;80.83
49591;BME280;35496;-21.974;-46.800;2022-11-06T05:04:33;92697.88;;;21.38;82.26
49591;BME280;35496;-21.974;-46.800;2022-11-06T05:07:00;92727.56;;;21.79;81.95
49591;BME280;35496;-21.974;-46.800;2022-11-06T05:09:26;92707.75;;;21.59;81.98
49591;BME280;35496;-21.974;-46.800;2022-11-06T05:11:56;92681.75;;;21.17;82.21
49591;BME280;35496;-21.974;-46.800;2022-11-06T05:14:23;92686.63;;;20.92;83.78
49591;BME280;35496;-21.974;-46.800;2022-11-06T05:16:50;92681.69;;;21.12;83.58
49591;BME280;35496;-21.974;-46.800;2022-11-06T05:19:16;92696.16;;;21.44;82.55
49591;BME280;35496;-21.974;-46.800;2022-11-06T05:21:43;92602.81;;;20.82;82.29
49591;BME280;35496;-21.974;-46.800;2022-11-06T05:24:28;92718.94;;;21.67;81.91
49591;BME280;35496;-21.974;-46.800;2022-11-06T05:26:55;92657.34;;;20.93;82.38
49591;BME280;35496;-21.974;-46.800;2022-11-06T05:29:21;92667.41;;;21.30;81.83
49591;BME280;35496;-21.974;-46.800;2022-11-06T05:31:48;92652.53;;;21.24;81.89
49591;BME280;35496;-21.974;-46.800;2022-11-06T05:34:18;92669.44;;;21.06;83.11
49591;BME280;35496;-21.974;-46.800;2022-11-06T05:36:44;92624.97;;;20.64;84.04
49591;BME280;35496;-21.974;-46.800;2022-11-06T05:39:11;92656.88;;;20.79;84.45
49591;BME280;35496;-21.974;-46.800;2022-11-06T05:41:38;92676.72;;;21.16;84.14
49591;BME280;35496;-21.974;-46.800;2022-11-06T05:44:04;92690.25;;;21.19;83.71
49591;BME280;35496;-21.974;-46.800;2022-11-06T05:46:31;92680.22;;;21.38;83.43
49591;BME280;35496;-21.974;-46.800;2022-11-06T05:48:58;92672.03;;;21.40;82.36
49591;BME280;35496;-21.974;-46.800;2022-11-06T05:51:24;92681.84;;;21.06;84.46
49591;BME280;35496;-21.974;-46.800;2022-11-06T05:53:51;92683.88;;;21.37;83.48
49591;BME280;35496;-21.974;-46.800;2022-11-06T05:56:19;92691.56;;;21.39;83.17
49591;BME280;35496;-21.974;-46.800;2022-11-06T05:58:46;92691.25;;;21.35;83.35
49591;BME280;35496;-21.974;-46.800;2022-11-06T06:01:12;92692.63;;;21.99;81.27
49591;BME280;35496;-21.974;-46.800;2022-11-06T06:03:39;92706.47;;;22.83;78.23
49591;BME280;35496;-21.974;-46.800;2022-11-06T06:06:06;92679.03;;;22.34;78.72
49591;BME280;35496;-21.974;-46.800;2022-11-06T06:08:33;92686.56;;;21.98;79.55
49591;BME280;35496;-21.974;-46.800;2022-11-06T06:10:59;92703.91;;;21.50;81.97
49591;BME280;35496;-21.974;-46.800;2022-11-06T06:13:26;92690.59;;;21.62;81.33
49591;BME280;35496;-21.974;-46.800;2022-11-06T06:15:52;92689.81;;;21.84;80.93
49591;BME280;35496;-21.974;-46.800;2022-11-06T06:18:19;92641.13;;;20.68;84.04
49591;BME280;35496;-21.974;-46.800;2022-11-06T06:20:46;92704.00;;;21.99;81.01
49591;BME280;35496;-21.974;-46.800;2022-11-06T06:23:12;92678.91;;;21.58;82.14
49591;BME280;35496;-21.974;-46.800;2022-11-06T06:25:39;92663.78;;;21.97;78.71
49591;BME280;35496;-21.974;-46.800;2022-11-06T06:28:06;92682.44;;;22.30;79.91
49591;BME280;35496;-21.974;-46.800;2022-11-06T06:30:32;92642.66;;;20.64;82.77
49591;BME280;35496;-21.974;-46.800;2022-11-06T06:33:35;92695.56;;;21.41;82.64
49591;BME280;35496;-21.974;-46.800;2022-11-06T06:36:03;92683.66;;;21.22;84.35
49591;BME280;35496;-21.974;-46.800;2022-11-06T06:38:30;92654.66;;;20.88;83.28
49591;BME280;35496;-21.974;-46.800;2022-11-06T06:41:05;92703.78;;;21.79;82.31
49591;BME280;35496;-21.974;-46.800;2022-11-06T06:43:32;92657.25;;;21.05;83.79
49591;BME280;35496;-21.974;-46.800;2022-11-06T06:46:00;92660.84;;;21.72;81.15
49591;BME280;35496;-21.974;-46.800;2022-11-06T06:48:27;92668.03;;;21.37;81.11
49591;BME280;35496;-21.974;-46.800;2022-11-06T06:50:58;92712.72;;;21.56;81.56
49591;BME280;35496;-21.974;-46.800;2022-11-06T06:53:25;92655.53;;;20.94;82.44
49591;BME280;35496;-21.974;-46.800;2022-11-06T06:55:59;92707.84;;;20.97;83.38
49591;BME280;35496;-21.974;-46.800;2022-11-06T06:58:29;92710.88;;;21.56;81.01
49591;BME280;35496;-21.974;-46.800;2022-11-06T07:01:00;92708.41;;;20.99;82.71
49591;BME280;35496;-21.974;-46.800;2022-11-06T07:03:28;92732.13;;;21.67;80.50
49591;BME280;35496;-21.974;-46.800;2022-11-06T07:05:56;92726.81;;;21.62;81.38
49591;BME280;35496;-21.974;-46.800;2022-11-06T07:08:25;92735.28;;;21.30;82.87
49591;BME280;35496;-21.974;-46.800;2022-11-06T07:10:51;92714.00;;;21.36;82.38
49591;BME280;35496;-21.974;-46.800;2022-11-06T07:13:18;92715.28;;;21.51;82.14
49591;BME280;35496;-21.974;-46.800;2022-11-06T07:15:45;92726.63;;;21.68;81.48
49591;BME280;35496;-21.974;-46.800;2022-11-06T07:18:11;92715.38;;;21.56;80.32
49591;BME280;35496;-21.974;-46.800;2022-11-06T07:20:38;92685.84;;;21.25;81.39
49591;BME280;35496;-21.974;-46.800;2022-11-06T07:23:06;92715.59;;;21.54;81.43
49591;BME280;35496;-21.974;-46.800;2022-11-06T07:25:33;92659.72;;;21.46;79.80
49591;BME280;35496;-21.974;-46.800;2022-11-06T07:28:04;92698.31;;;21.47;80.69
49591;BME280;35496;-21.974;-46.800;2022-11-06T07:30:32;92736.22;;;21.57;81.08
49591;BME280;35496;-21.974;-46.800;2022-11-06T07:33:03;92706.34;;;21.74;80.12
49591;BME280;35496;-21.974;-46.800;2022-11-06T07:35:31;92747.94;;;21.28;81.75
49591;BME280;35496;-21.974;-46.800;2022-11-06T07:37:58;92660.72;;;21.06;81.63
49591;BME280;35496;-21.974;-46.800;2022-11-06T07:40:28;92714.81;;;21.76;79.85
49591;BME280;35496;-21.974;-46.800;2022-11-06T07:42:54;92730.97;;;21.96;79.70
49591;BME280;35496;-21.974;-46.800;2022-11-06T07:45:21;92756.16;;;21.65;80.78
49591;BME280;35496;-21.974;-46.800;2022-11-06T07:47:47;92754.19;;;21.94;80.13
49591;BME280;35496;-21.974;-46.800;2022-11-06T07:50:14;92755.72;;;21.51;81.14
49591;BME280;35496;-21.974;-46.800;2022-11-06T07:52:41;92720.22;;;21.30;82.18
49591;BME280;35496;-21.974;-46.800;2022-11-06T07:55:08;92749.44;;;21.07;83.41
49591;BME280;35496;-21.974;-46.800;2022-11-06T07:57:35;92761.41;;;21.60;81.77
49591;BME280;35496;-21.974;-46.800;2022-11-06T08:00:04;92709.91;;;20.78;82.60
49591;BME280;35496;-21.974;-46.800;2022-11-06T08:02:31;92773.78;;;21.43;82.07
49591;BME280;35496;-21.974;-46.800;2022-11-06T08:04:58;92783.03;;;21.96;81.46
49591;BME280;35496;-21.974;-46.800;2022-11-06T08:07:24;92775.63;;;21.76;80.45
49591;BME280;35496;-21.974;-46.800;2022-11-06T08:09:51;92763.75;;;21.78;80.28
49591;BME280;35496;-21.974;-46.800;2022-11-06T08:12:18;92768.69;;;21.53;82.49
49591;BME280;35496;-21.974;-46.800;2022-11-06T08:14:44;92735.19;;;20.74;89.10
49591;BME280;35496;-21.974;-46.800;2022-11-06T08:17:11;92689.94;;;19.32;95.58
49591;BME280;35496;-21.974;-46.800;2022-11-06T08:19:37;92657.94;;;19.75;95.29
49591;BME280;35496;-21.974;-46.800;2022-11-06T08:22:04;92743.75;;;20.52;94.96
49591;BME280;35496;-21.974;-46.800;2022-11-06T08:24:34;92698.94;;;19.71;96.83
49591;BME280;35496;-21.974;-46.800;2022-11-06T08:27:01;92686.53;;;19.83;96.76
49591;BME280;35496;-21.974;-46.800;2022-11-06T08:29:28;92763.72;;;21.06;93.28
49591;BME280;35496;-21.974;-46.800;2022-11-06T08:31:54;92757.47;;;21.46;91.22
49591;BME280;35496;-21.974;-46.800;2022-11-06T08:34:21;92748.91;;;21.21;91.08
49591;BME280;35496;-21.974;-46.800;2022-11-06T08:36:48;92753.06;;;21.17;91.67
49591;BME280;35496;-21.974;-46.800;2022-11-06T08:39:18;92725.69;;;21.24;89.49
49591;BME280;35496;-21.974;-46.800;2022-11-06T08:41:45;92741.94;;;20.98;91.49
49591;BME280;35496;-21.974;-46.800;2022-11-06T08:44:12;92790.44;;;21.26;92.18
49591;BME280;35496;-21.974;-46.800;2022-11-06T08:46:38;92797.00;;;21.24;92.62
49591;BME280;35496;-21.974;-46.800;2022-11-06T08:49:05;92734.06;;;20.00;96.20
49591;BME280;35496;-21.974;-46.800;2022-11-06T08:51:32;92767.81;;;20.68;96.19
49591;BME280;35496;-21.974;-46.800;2022-11-06T08:53:58;92760.09;;;20.95;94.05
49591;BME280;35496;-21.974;-46.800;2022-11-06T08:56:25;92723.22;;;19.61;99.44
49591;BME280;35496;-21.974;-46.800;2022-11-06T08:58:52;92728.53;;;19.38;100.00
49591;BME280;35496;-21.974;-46.800;2022-11-06T09:01:18;92696.78;;;19.44;100.00
49591;BME280;35496;-21.974;-46.800;2022-11-06T09:03:45;92774.91;;;20.38;96.88
49591;BME280;35496;-21.974;-46.800;2022-11-06T09:06:12;92798.34;;;21.26;94.59
49591;BME280;35496;-21.974;-46.800;2022-11-06T09:08:38;92720.53;;;20.66;95.26
49591;BME280;35496;-21.974;-46.800;2022-11-06T09:11:06;92778.91;;;21.15;93.66
49591;BME280;35496;-21.974;-46.800;2022-11-06T09:13:33;92766.97;;;19.98;99.93
49591;BME280;35496;-21.974;-46.800;2022-11-06T09:16:00;92753.38;;;21.04;94.86
49591;BME280;35496;-21.974;-46.800;2022-11-06T09:18:27;92838.97;;;21.37;94.52
49591;BME280;35496;-21.974;-46.800;2022-11-06T09:20:55;92857.44;;;22.22;91.32
49591;BME280;35496;-21.974;-46.800;2022-11-06T09:23:22;92834.91;;;21.80;90.70
49591;BME280;35496;-21.974;-46.800;2022-11-06T09:25:50;92846.56;;;21.33;94.36
49591;BME280;35496;-21.974;-46.800;2022-11-06T09:28:17;92734.84;;;20.01;97.27
49591;BME280;35496;-21.974;-46.800;2022-11-06T09:30:43;92801.00;;;20.11;98.44
49591;BME280;35496;-21.974;-46.800;2022-11-06T09:33:10;92830.25;;;20.62;98.26
49591;BME280;35496;-21.974;-46.800;2022-11-06T09:35:37;92796.38;;;20.71;95.46
49591;BME280;35496;-21.974;-46.800;2022-11-06T09:38:06;92875.75;;;21.72;92.30
49591;BME280;35496;-21.974;-46.800;2022-11-06T09:40:43;92782.25;;;20.36;96.41
49591;BME280;35496;-21.974;-46.800;2022-11-06T09:45:54;92807.84;;;20.24;98.19
49591;BME280;35496;-21.974;-46.800;2022-11-06T09:48:36;92846.81;;;20.86;96.02
49591;BME280;35496;-21.974;-46.800;2022-11-06T09:51:15;92907.31;;;22.91;90.09
49591;BME280;35496;-21.974;-46.800;2022-11-06T09:54:04;92857.44;;;21.66;92.32
49591;BME280;35496;-21.974;-46.800;2022-11-06T09:56:35;92897.78;;;21.95;92.64
49591;BME280;35496;-21.974;-46.800;2022-11-06T09:59:09;92917.09;;;22.29;92.33
49591;BME280;35496;-21.974;-46.800;2022-11-06T10:04:13;92903.06;;;21.44;94.85
49591;BME280;35496;-21.974;-46.800;2022-11-06T10:06:43;92919.66;;;21.73;92.61
49591;BME280;35496;-21.974;-46.800;2022-11-06T10:09:10;92928.00;;;22.72;89.20
49591;BME280;35496;-21.974;-46.800;2022-11-06T10:12:02;92961.47;;;23.22;88.11
49591;BME280;35496;-21.974;-46.800;2022-11-06T10:15:07;92964.59;;;23.41;87.52
49591;BME280;35496;-21.974;-46.800;2022-11-06T10:22:38;93002.56;;;25.87;81.22
49591;BME280;35496;-21.974;-46.800;2022-11-06T10:25:19;92989.19;;;24.93;79.47
49591;BME280;35496;-21.974;-46.800;2022-11-06T10:28:02;92933.47;;;23.31;85.30
49591;BME280;35496;-21.974;-46.800;2022-11-06T10:31:33;92923.09;;;22.64;86.43
49591;BME280;35496;-21.974;-46.800;2022-11-06T10:34:31;92997.53;;;25.90;80.32
49591;BME280;35496;-21.974;-46.800;2022-11-06T10:37:01;92977.25;;;25.01;79.46
49591;BME280;35496;-21.974;-46.800;2022-11-06T10:39:34;92979.63;;;24.17;82.92
49591;BME280;35496;-21.974;-46.800;2022-11-06T10:42:17;92995.28;;;24.51;83.04
49591;BME280;35496;-21.974;-46.800;2022-11-06T10:47:27;92965.72;;;25.38;79.97
49591;BME280;35496;-21.974;-46.800;2022-11-06T10:50:01;92969.63;;;26.08;77.59
49591;BME280;35496;-21.974;-46.800;2022-11-06T10:59:59;92999.22;;;24.86;80.98
49591;BME280;35496;-21.974;-46.800;2022-11-06T11:02:30;92977.41;;;24.41;82.18
49591;BME280;35496;-21.974;-46.800;2022-11-06T11:04:57;92972.44;;;24.50;82.38
49591;BME280;35496;-21.974;-46.800;2022-11-06T11:07:28;93012.72;;;24.74;81.52
49591;BME280;35496;-21.974;-46.800;2022-11-06T11:09:56;93009.22;;;25.16;80.69
49591;BME280;35496;-21.974;-46.800;2022-11-06T11:12:28;92998.44;;;24.85;82.24
49591;BME280;35496;-21.974;-46.800;2022-11-06T11:15:24;93004.09;;;25.57;79.23
49591;BME280;35496;-21.974;-46.800;2022-11-06T11:20:40;92963.38;;;25.51;79.57
49591;BME280;35496;-21.974;-46.800;2022-11-06T11:23:22;93025.72;;;27.95;74.62
49591;BME280;35496;-21.974;-46.800;2022-11-06T11:25:57;93038.00;;;27.00;72.06
49591;BME280;35496;-21.974;-46.800;2022-11-06T11:28:39;93010.09;;;26.36;74.02
49591;BME280;35496;-21.974;-46.800;2022-11-06T11:33:48;92991.09;;;27.75;66.33
49591;BME280;35496;-21.974;-46.800;2022-11-06T11:36:16;92893.41;;;27.79;65.61
49591;BME280;35496;-21.974;-46.800;2022-11-06T11:38:43;93007.38;;;28.92;67.52
49591;BME280;35496;-21.974;-46.800;2022-11-06T11:46:24;92993.28;;;26.77;69.53
49591;BME280;35496;-21.974;-46.800;2022-11-06T11:48:55;93021.72;;;27.93;68.19
49591;BME280;35496;-21.974;-46.800;2022-11-06T11:51:29;93023.25;;;29.07;62.40
49591;BME280;35496;-21.974;-46.800;2022-11-06T11:54:14;92992.06;;;29.46;60.69
49591;BME280;35496;-21.974;-46.800;2022-11-06T11:56:49;93034.22;;;30.40;60.38
49591;BME280;35496;-21.974;-46.800;2022-11-06T11:59:23;93031.25;;;31.07;57.27
49591;BME280;35496;-21.974;-46.800;2022-11-06T12:01:52;93005.38;;;29.75;56.45
49591;BME280;35496;-21.974;-46.800;2022-11-06T12:04:50;93007.75;;;31.60;54.95
49591;BME280;35496;-21.974;-46.800;2022-11-06T12:09:53;93035.94;;;30.83;56.59
49591;BME280;35496;-21.974;-46.800;2022-11-06T12:12:32;93031.19;;;31.82;56.71
49591;BME280;35496;-21.974;-46.800;2022-11-06T12:17:35;93033.84;;;30.28;58.73
49591;BME280;35496;-21.974;-46.800;2022-11-06T12:20:09;93023.69;;;29.19;60.62
49591;BME280;35496;-21.974;-46.800;2022-11-06T12:22:40;93039.28;;;28.43;63.19
49591;BME280;35496;-21.974;-46.800;2022-11-06T12:25:15;93004.09;;;27.87;64.21
49591;BME280;35496;-21.974;-46.800;2022-11-06T12:27:54;93037.91;;;28.51;64.08
49591;BME280;35496;-21.974;-46.800;2022-11-06T12:30:23;93022.09;;;28.55;63.34
49591;BME280;35496;-21.974;-46.800;2022-11-06T12:35:49;93020.69;;;27.83;64.77
49591;BME280;35496;-21.974;-46.800;2022-11-06T12:38:54;93007.06;;;27.25;64.09
49591;BME280;35496;-21.974;-46.800;2022-11-06T12:43:56;93005.09;;;30.52;59.28
49591;BME280;35496;-21.974;-46.800;2022-11-06T12:49:27;93036.13;;;29.29;59.14
49591;BME280;35496;-21.974;-46.800;2022-11-06T12:55:22;93018.47;;;31.18;55.70
49591;BME280;35496;-21.974;-46.800;2022-11-06T12:58:30;93025.19;;;30.69;58.41
49591;BME280;35496;-21.974;-46.800;2022-11-06T13:01:37;93020.34;;;30.85;58.97
49591;BME280;35496;-21.974;-46.800;2022-11-06T13:04:02;93016.66;;;32.33;55.01
49591;BME280;35496;-21.974;-46.800;2022-11-06T13:13:07;93023.34;;;30.83;57.25
49591;BME280;35496;-21.974;-46.800;2022-11-06T13:16:00;93012.63;;;32.44;51.59
49591;BME280;35496;-21.974;-46.800;2022-11-06T13:18:38;93003.38;;;33.36;50.36
49591;BME280;35496;-21.974;-46.800;2022-11-06T13:23:49;93005.31;;;33.93;48.15
49591;BME280;35496;-21.974;-46.800;2022-11-06T13:28:53;92996.28;;;34.50;46.76
49591;BME280;35496;-21.974;-46.800;2022-11-06T13:31:27;92988.47;;;33.78;48.24
49591;BME280;35496;-21.974;-46.800;2022-11-06T13:34:06;92979.66;;;35.68;44.69
49591;BME280;35496;-21.974;-46.800;2022-11-06T13:36:39;92976.50;;;33.44;46.71
49591;BME280;35496;-21.974;-46.800;2022-11-06T13:39:12;92994.38;;;35.41;45.49
49591;BME280;35496;-21.974;-46.800;2022-11-06T13:41:41;92987.44;;;34.75;45.61
49591;BME280;35496;-21.974;-46.800;2022-11-06T13:44:10;92986.75;;;34.87;45.39
49591;BME280;35496;-21.974;-46.800;2022-11-06T13:47:08;92987.91;;;34.60;46.17
49591;BME280;35496;-21.974;-46.800;2022-11-06T13:49:46;92960.25;;;31.83;50.14
49591;BME280;35496;-21.974;-46.800;2022-11-06T13:52:25;92980.63;;;32.79;49.00
49591;BME280;35496;-21.974;-46.800;2022-11-06T13:55:24;92978.16;;;33.23;48.91
49591;BME280;35496;-21.974;-46.800;2022-11-06T14:03:51;92989.22;;;31.03;51.26
49591;BME280;35496;-21.974;-46.800;2022-11-06T14:06:28;92974.69;;;32.23;51.32
49591;BME280;35496;-21.974;-46.800;2022-11-06T14:08:59;92963.59;;;33.90;47.55
49591;BME280;35496;-21.974;-46.800;2022-11-06T14:11:33;92912.84;;;31.14;50.11
49591;BME280;35496;-21.974;-46.800;2022-11-06T14:14:27;92977.31;;;30.10;53.16
49591;BME280;35496;-21.974;-46.800;2022-11-06T14:19:38;92930.41;;;30.46;53.40
49591;BME280;35496;-21.974;-46.800;2022-11-06T14:24:37;92964.63;;;30.82;52.88
49591;BME280;35496;-21.974;-46.800;2022-11-06T14:32:47;92943.06;;;33.37;48.93
49591;BME280;35496;-21.974;-46.800;2022-11-06T14:40:38;92952.94;;;32.33;48.83
49591;BME280;35496;-21.974;-46.800;2022-11-06T14:43:32;92946.19;;;30.47;53.19
49591;BME280;35496;-21.974;-46.800;2022-11-06T14:48:39;92941.75;;;30.89;51.79
49591;BME280;35496;-21.974;-46.800;2022-11-06T14:51:10;92902.56;;;29.76;53.61
49591;BME280;35496;-21.974;-46.800;2022-11-06T14:53:48;92934.53;;;29.67;53.51
49591;BME280;35496;-21.974;-46.800;2022-11-06T14:56:28;92932.38;;;29.02;54.79
49591;BME280;35496;-21.974;-46.800;2022-11-06T14:59:08;92912.28;;;31.67;51.51